createdAt,value
2017-09-10T00:00:53.967Z,999.04
2017-09-10T00:01:54.045Z,999.04
2017-09-10T00:02:54.058Z,999.05
2017-09-10T00:03:54.090Z,999.07
2017-09-10T00:04:54.483Z,999.08
2017-09-10T00:05:54.909Z,999.07
2017-09-10T00:06:55.305Z,999.08
2017-09-10T00:07:55.384Z,999.14
2017-09-10T00:08:55.833Z,999.19
2017-09-10T00:09:55.842Z,999.17
2017-09-10T00:10:56.213Z,999.2
2017-09-10T00:11:56.266Z,999.21
2017-09-10T00:12:56.290Z,999.21
2017-09-10T00:13:56.307Z,999.21
2017-09-10T00:14:56.341Z,999.24
2017-09-10T00:15:56.708Z,999.29
2017-09-10T00:16:56.743Z,999.24
2017-09-10T00:17:56.880Z,999.29
2017-09-10T00:18:56.908Z,999.25
2017-09-10T00:19:57.351Z,999.25
2017-09-10T00:20:57.356Z,999.27
2017-09-10T00:21:57.399Z,999.21
2017-09-10T00:22:57.758Z,999.3
2017-09-10T00:23:57.781Z,999.33
2017-09-10T00:24:57.855Z,999.37
2017-09-10T00:25:57.869Z,999.41
2017-09-10T00:26:57.897Z,999.36
2017-09-10T00:27:57.935Z,999.37
2017-09-10T00:28:58.063Z,999.39
2017-09-10T00:29:58.456Z,999.44
2017-09-10T00:30:58.510Z,999.44
2017-09-10T00:31:58.851Z,999.44
2017-09-10T00:32:59.250Z,999.49
2017-09-10T00:33:59.587Z,999.51
2017-09-10T00:34:59.600Z,999.48
2017-09-10T00:35:59.752Z,999.48
2017-09-10T00:37:00.153Z,999.47
2017-09-10T00:38:00.208Z,999.46
2017-09-10T00:39:00.295Z,999.42
2017-09-10T00:40:00.324Z,999.41
2017-09-10T00:41:00.355Z,999.46
2017-09-10T00:42:00.738Z,999.45
2017-09-10T00:43:01.355Z,999.4
2017-09-10T00:44:01.388Z,999.41
2017-09-10T00:45:01.860Z,999.41
2017-09-10T00:46:01.908Z,999.44
2017-09-10T00:47:01.926Z,999.43
2017-09-10T00:48:02.024Z,999.45
2017-09-10T00:49:02.050Z,999.43
2017-09-10T00:50:02.062Z,999.41
2017-09-10T00:51:02.097Z,999.43
2017-09-10T00:52:02.126Z,999.48
2017-09-10T00:53:02.159Z,999.44
2017-09-10T00:54:02.607Z,999.5
2017-09-10T00:55:02.662Z,999.52
2017-09-10T00:56:02.673Z,999.6
2017-09-10T00:57:03.070Z,999.59
2017-09-10T00:58:03.119Z,999.59
2017-09-10T00:59:03.166Z,999.56
2017-09-10T01:00:03.481Z,999.55
2017-09-10T01:01:03.509Z,999.48
2017-09-10T01:02:03.569Z,999.44
2017-09-10T01:03:03.864Z,999.49
2017-09-10T01:04:03.628Z,999.53
2017-09-10T01:05:03.640Z,999.49
2017-09-10T01:06:04.013Z,999.59
2017-09-10T01:07:04.391Z,999.63
2017-09-10T01:08:04.428Z,999.67
2017-09-10T01:09:04.482Z,999.72
2017-09-10T01:10:04.646Z,999.69
2017-09-10T01:11:04.618Z,999.64
2017-09-10T01:12:04.628Z,999.64
2017-09-10T01:13:05.018Z,999.69
2017-09-10T01:14:05.041Z,999.7
2017-09-10T01:15:05.620Z,999.68
2017-09-10T01:16:06.005Z,999.66
2017-09-10T01:17:06.374Z,999.72
2017-09-10T01:18:06.443Z,999.66
2017-09-10T01:19:06.497Z,999.68
2017-09-10T01:20:06.874Z,999.65
2017-09-10T01:21:07.257Z,999.68
2017-09-10T01:22:07.283Z,999.65
2017-09-10T01:23:07.315Z,999.62
2017-09-10T01:24:07.350Z,999.64
2017-09-10T01:25:07.475Z,999.62
2017-09-10T01:26:07.409Z,999.66
2017-09-10T01:27:07.442Z,999.66
2017-09-10T01:28:07.487Z,999.62
2017-09-10T01:29:07.890Z,999.64
2017-09-10T01:30:07.917Z,999.7
2017-09-10T01:31:07.932Z,999.78
2017-09-10T01:32:07.986Z,999.81
2017-09-10T01:33:08.022Z,999.86
2017-09-10T01:34:08.050Z,999.84
2017-09-10T01:35:08.082Z,999.86
2017-09-10T01:36:08.138Z,999.86
2017-09-10T01:37:08.479Z,999.93
2017-09-10T01:38:08.511Z,999.96
2017-09-10T01:39:08.565Z,999.98
2017-09-10T01:40:08.580Z,999.95
2017-09-10T01:41:08.607Z,999.94
2017-09-10T01:42:08.639Z,999.97
2017-09-10T01:43:09.024Z,999.95
2017-09-10T01:44:09.032Z,999.83
2017-09-10T01:45:09.085Z,999.87
2017-09-10T01:46:09.118Z,999.8
2017-09-10T01:47:09.129Z,999.85
2017-09-10T01:48:09.162Z,999.85
2017-09-10T01:49:09.244Z,999.89
2017-09-10T01:50:09.275Z,999.87
2017-09-10T01:51:09.445Z,999.85
2017-09-10T01:52:09.521Z,999.87
2017-09-10T01:53:09.529Z,999.88
2017-09-10T01:54:09.681Z,999.98
2017-09-10T01:55:10.010Z,999.92
2017-09-10T01:56:10.163Z,999.95
2017-09-10T01:57:10.187Z,1000.01
2017-09-10T01:58:10.222Z,999.96
2017-09-10T01:59:10.232Z,1000.02
2017-09-10T02:00:10.266Z,1000.04
2017-09-10T02:01:10.316Z,1000.01
2017-09-10T02:02:10.325Z,1000
2017-09-10T02:03:10.363Z,999.96
2017-09-10T02:04:10.391Z,999.97
2017-09-10T02:05:10.425Z,999.97
2017-09-10T02:06:10.453Z,999.98
2017-09-10T02:07:10.491Z,999.97
2017-09-10T02:08:10.520Z,1000.01
2017-09-10T02:09:10.550Z,1000.04
2017-09-10T02:10:10.585Z,1000.04
2017-09-10T02:11:10.615Z,1000
2017-09-10T02:12:10.648Z,1000
2017-09-10T02:13:10.703Z,1000.02
2017-09-10T02:14:10.815Z,999.99
2017-09-10T02:15:10.858Z,999.97
2017-09-10T02:16:10.889Z,999.94
2017-09-10T02:17:10.923Z,999.95
2017-09-10T02:18:11.318Z,999.98
2017-09-10T02:19:11.726Z,1000.03
2017-09-10T02:20:11.843Z,1000.09
2017-09-10T02:21:11.873Z,1000.06
2017-09-10T02:22:11.907Z,1000.11
2017-09-10T02:23:11.935Z,1000.09
2017-09-10T02:24:12.326Z,1000.08
2017-09-10T02:25:12.332Z,1000.12
2017-09-10T02:26:12.387Z,1000.04
2017-09-10T02:27:12.418Z,1000.06
2017-09-10T02:28:12.429Z,1000.1
2017-09-10T02:29:12.509Z,1000.07
2017-09-10T02:30:12.558Z,1000.08
2017-09-10T02:31:12.618Z,1000.06
2017-09-10T02:32:12.652Z,1000
2017-09-10T02:33:12.683Z,1000
2017-09-10T02:34:12.736Z,1000.04
2017-09-10T02:35:12.785Z,1000
2017-09-10T02:36:12.819Z,1000.01
2017-09-10T02:37:12.850Z,1000.02
2017-09-10T02:38:12.879Z,1000.02
2017-09-10T02:39:12.897Z,1000.02
2017-09-10T02:40:13.259Z,1000
2017-09-10T02:41:13.622Z,999.99
2017-09-10T02:42:13.626Z,999.99
2017-09-10T02:43:13.684Z,999.99
2017-09-10T02:44:14.016Z,999.95
2017-09-10T02:45:14.023Z,999.99
2017-09-10T02:46:14.077Z,999.99
2017-09-10T02:47:14.405Z,1000.01
2017-09-10T02:48:14.442Z,1000.05
2017-09-10T02:49:14.835Z,999.97
2017-09-10T02:50:15.216Z,1000.02
2017-09-10T02:51:15.250Z,999.98
2017-09-10T02:52:15.612Z,999.94
2017-09-10T02:53:15.635Z,999.96
2017-09-10T02:54:15.695Z,999.96
2017-09-10T02:55:15.792Z,999.98
2017-09-10T02:56:15.824Z,999.92
2017-09-10T02:57:15.832Z,999.98
2017-09-10T02:58:16.206Z,999.97
2017-09-10T02:59:16.253Z,999.96
2017-09-10T03:00:16.271Z,999.97
2017-09-10T03:01:16.300Z,999.98
2017-09-10T03:02:16.359Z,1000.03
2017-09-10T03:03:16.389Z,1000
2017-09-10T03:04:16.396Z,1000.03
2017-09-10T03:05:16.450Z,1000.01
2017-09-10T03:06:16.483Z,1000.01
2017-09-10T03:07:16.826Z,999.89
2017-09-10T03:08:16.909Z,999.9
2017-09-10T03:09:16.939Z,999.91
2017-09-10T03:10:16.989Z,999.91
2017-09-10T03:11:17.006Z,999.88
2017-09-10T03:12:17.410Z,999.86
2017-09-10T03:13:17.437Z,999.85
2017-09-10T03:14:17.791Z,999.91
2017-09-10T03:15:17.899Z,999.9
2017-09-10T03:16:17.858Z,999.92
2017-09-10T03:17:17.864Z,999.96
2017-09-10T03:18:17.894Z,1000.05
2017-09-10T03:19:17.978Z,1000.03
2017-09-10T03:20:17.994Z,1000.03
2017-09-10T03:21:18.025Z,1000.09
2017-09-10T03:22:18.056Z,1000.02
2017-09-10T03:23:18.095Z,999.99
2017-09-10T03:24:18.140Z,1000.04
2017-09-10T03:25:18.484Z,1000.03
2017-09-10T03:26:18.491Z,1000.05
2017-09-10T03:27:18.898Z,1000.06
2017-09-10T03:28:18.925Z,1000.05
2017-09-10T03:29:18.937Z,1000.05
2017-09-10T03:30:19.341Z,1000.07
2017-09-10T03:31:19.346Z,1000.09
2017-09-10T03:32:19.402Z,1000.07
2017-09-10T03:33:19.498Z,1000.12
2017-09-10T03:34:19.528Z,1000.06
2017-09-10T03:35:19.581Z,1000.05
2017-09-10T03:36:19.635Z,1000.08
2017-09-10T03:37:20.007Z,1000.07
2017-09-10T03:38:20.039Z,1000.1
2017-09-10T03:39:20.046Z,1000.14
2017-09-10T03:40:20.093Z,1000.16
2017-09-10T03:41:20.122Z,1000.17
2017-09-10T03:42:20.151Z,1000.14
2017-09-10T03:43:20.185Z,1000.12
2017-09-10T03:44:20.589Z,1000.12
2017-09-10T03:45:20.598Z,1000.1
2017-09-10T03:46:20.649Z,1000.14
2017-09-10T03:47:20.681Z,1000.15
2017-09-10T03:48:20.706Z,1000.25
2017-09-10T03:49:20.739Z,1000.23
2017-09-10T03:50:20.794Z,1000.25
2017-09-10T03:51:21.190Z,1000.24
2017-09-10T03:52:21.220Z,1000.22
2017-09-10T03:53:21.269Z,1000.22
2017-09-10T03:54:21.277Z,1000.19
2017-09-10T03:55:21.331Z,1000.29
2017-09-10T03:56:21.343Z,1000.27
2017-09-10T03:57:21.376Z,1000.27
2017-09-10T03:58:21.479Z,1000.25
2017-09-10T03:59:21.808Z,1000.22
2017-09-10T04:00:21.830Z,1000.28
2017-09-10T04:01:22.271Z,1000.23
2017-09-10T04:02:22.307Z,1000.25
2017-09-10T04:03:22.332Z,1000.29
2017-09-10T04:04:22.362Z,1000.31
2017-09-10T04:05:22.544Z,1000.33
2017-09-10T04:06:22.434Z,1000.32
2017-09-10T04:07:22.462Z,1000.38
2017-09-10T04:08:22.868Z,1000.34
2017-09-10T04:09:22.902Z,1000.33
2017-09-10T04:10:22.933Z,1000.4
2017-09-10T04:11:22.966Z,1000.4
2017-09-10T04:12:22.999Z,1000.44
2017-09-10T04:13:23.033Z,1000.41
2017-09-10T04:14:23.436Z,1000.39
2017-09-10T04:15:23.849Z,1000.42
2017-09-10T04:16:23.876Z,1000.44
2017-09-10T04:17:24.285Z,1000.42
2017-09-10T04:18:24.316Z,1000.39
2017-09-10T04:19:24.350Z,1000.38
2017-09-10T04:20:24.380Z,1000.39
2017-09-10T04:21:24.409Z,1000.43
2017-09-10T04:22:24.440Z,1000.42
2017-09-10T04:23:24.479Z,1000.38
2017-09-10T04:24:24.588Z,1000.38
2017-09-10T04:25:24.613Z,1000.39
2017-09-10T04:26:24.642Z,1000.4
2017-09-10T04:27:24.679Z,1000.45
2017-09-10T04:28:24.712Z,1000.4
2017-09-10T04:29:25.109Z,1000.46
2017-09-10T04:30:25.143Z,1000.46
2017-09-10T04:31:25.170Z,1000.44
2017-09-10T04:32:25.582Z,1000.45
2017-09-10T04:33:25.608Z,1000.53
2017-09-10T04:34:25.638Z,1000.57
2017-09-10T04:35:25.674Z,1000.52
2017-09-10T04:36:25.708Z,1000.6
2017-09-10T04:37:25.733Z,1000.57
2017-09-10T04:38:25.765Z,1000.55
2017-09-10T04:39:25.803Z,1000.61
2017-09-10T04:40:25.828Z,1000.61
2017-09-10T04:41:25.860Z,1000.6
2017-09-10T04:42:25.893Z,1000.62
2017-09-10T04:43:25.924Z,1000.6
2017-09-10T04:44:25.954Z,1000.61
2017-09-10T04:45:25.988Z,1000.61
2017-09-10T04:46:26.103Z,1000.62
2017-09-10T04:47:26.128Z,1000.62
2017-09-10T04:48:26.217Z,1000.62
2017-09-10T04:49:26.245Z,1000.57
2017-09-10T04:50:26.277Z,1000.55
2017-09-10T04:51:26.312Z,1000.6
2017-09-10T04:52:26.430Z,1000.59
2017-09-10T04:53:26.453Z,1000.63
2017-09-10T04:54:26.858Z,1000.62
2017-09-10T04:55:26.887Z,1000.63
2017-09-10T04:56:27.297Z,1000.66
2017-09-10T04:57:27.325Z,1000.66
2017-09-10T04:58:27.354Z,1000.65
2017-09-10T04:59:27.435Z,1000.75
2017-09-10T05:00:27.424Z,1000.68
2017-09-10T05:01:27.846Z,1000.75
2017-09-10T05:02:27.876Z,1000.72
2017-09-10T05:03:27.908Z,1000.74
2017-09-10T05:04:28.342Z,1000.76
2017-09-10T05:05:28.426Z,1000.82
2017-09-10T05:06:28.853Z,1000.82
2017-09-10T05:07:28.884Z,1000.79
2017-09-10T05:08:29.291Z,1000.84
2017-09-10T05:09:29.320Z,1000.84
2017-09-10T05:10:29.356Z,1000.88
2017-09-10T05:11:29.382Z,1000.92
2017-09-10T05:12:29.422Z,1000.93
2017-09-10T05:13:29.446Z,1000.93
2017-09-10T05:14:29.478Z,1000.93
2017-09-10T05:15:29.513Z,1000.97
2017-09-10T05:16:29.544Z,1000.97
2017-09-10T05:17:29.575Z,1001.02
2017-09-10T05:18:29.998Z,1001.07
2017-09-10T05:19:30.378Z,1001.09
2017-09-10T05:20:30.412Z,1001.12
2017-09-10T05:21:30.437Z,1001.1
2017-09-10T05:22:30.471Z,1001.12
2017-09-10T05:23:30.506Z,1001.12
2017-09-10T05:24:30.546Z,1001.17
2017-09-10T05:25:30.564Z,1001.16
2017-09-10T05:26:30.598Z,1001.15
2017-09-10T05:27:30.687Z,1001.21
2017-09-10T05:28:30.721Z,1001.25
2017-09-10T05:29:31.127Z,1001.27
2017-09-10T05:30:31.159Z,1001.32
2017-09-10T05:31:31.595Z,1001.3
2017-09-10T05:32:31.625Z,1001.34
2017-09-10T05:33:31.654Z,1001.37
2017-09-10T05:34:31.680Z,1001.35
2017-09-10T05:35:32.108Z,1001.37
2017-09-10T05:36:32.139Z,1001.35
2017-09-10T05:37:32.169Z,1001.36
2017-09-10T05:38:32.198Z,1001.33
2017-09-10T05:39:32.237Z,1001.34
2017-09-10T05:40:32.266Z,1001.34
2017-09-10T05:41:32.298Z,1001.35
2017-09-10T05:42:32.332Z,1001.37
2017-09-10T05:43:32.365Z,1001.41
2017-09-10T05:44:32.398Z,1001.43
2017-09-10T05:45:32.490Z,1001.47
2017-09-10T05:46:32.940Z,1001.44
2017-09-10T05:47:33.362Z,1001.43
2017-09-10T05:48:33.389Z,1001.48
2017-09-10T05:49:33.426Z,1001.47
2017-09-10T05:50:33.462Z,1001.52
2017-09-10T05:51:33.488Z,1001.48
2017-09-10T05:52:33.521Z,1001.45
2017-09-10T05:53:33.554Z,1001.49
2017-09-10T05:54:33.588Z,1001.53
2017-09-10T05:55:33.673Z,1001.51
2017-09-10T05:56:33.704Z,1001.52
2017-09-10T05:57:33.739Z,1001.54
2017-09-10T05:58:33.769Z,1001.49
2017-09-10T05:59:34.177Z,1001.48
2017-09-10T06:00:34.252Z,1001.51
2017-09-10T06:01:34.707Z,1001.54
2017-09-10T06:02:35.170Z,1001.51
2017-09-10T06:03:35.138Z,1001.55
2017-09-10T06:04:35.236Z,1001.48
2017-09-10T06:05:35.271Z,1001.5
2017-09-10T06:06:35.304Z,1001.49
2017-09-10T06:07:35.336Z,1001.5
2017-09-10T06:08:35.368Z,1001.47
2017-09-10T06:09:35.397Z,1001.53
2017-09-10T06:10:35.833Z,1001.58
2017-09-10T06:11:36.245Z,1001.6
2017-09-10T06:12:36.276Z,1001.58
2017-09-10T06:13:36.304Z,1001.6
2017-09-10T06:14:36.710Z,1001.58
2017-09-10T06:15:36.738Z,1001.61
2017-09-10T06:16:37.151Z,1001.66
2017-09-10T06:17:37.185Z,1001.68
2017-09-10T06:18:37.220Z,1001.71
2017-09-10T06:19:37.251Z,1001.67
2017-09-10T06:20:37.283Z,1001.79
2017-09-10T06:21:37.316Z,1001.76
2017-09-10T06:22:37.349Z,1001.71
2017-09-10T06:23:37.381Z,1001.74
2017-09-10T06:24:37.500Z,1001.74
2017-09-10T06:25:37.527Z,1001.73
2017-09-10T06:26:37.940Z,1001.73
2017-09-10T06:27:37.969Z,1001.72
2017-09-10T06:28:38.005Z,1001.76
2017-09-10T06:29:38.040Z,1001.76
2017-09-10T06:30:38.151Z,1001.77
2017-09-10T06:31:38.592Z,1001.76
2017-09-10T06:32:38.627Z,1001.76
2017-09-10T06:33:38.659Z,1001.7
2017-09-10T06:34:38.690Z,1001.77
2017-09-10T06:35:38.723Z,1001.77
2017-09-10T06:36:38.756Z,1001.79
2017-09-10T06:37:38.790Z,1001.8
2017-09-10T06:38:38.824Z,1001.8
2017-09-10T06:39:38.857Z,1001.85
2017-09-10T06:40:39.260Z,1001.79
2017-09-10T06:41:39.715Z,1001.82
2017-09-10T06:42:39.814Z,1001.85
2017-09-10T06:43:39.850Z,1001.9
2017-09-10T06:44:39.962Z,1001.93
2017-09-10T06:45:40.359Z,1001.92
2017-09-10T06:46:40.799Z,1002.02
2017-09-10T06:47:41.230Z,1001.91
2017-09-10T06:48:41.611Z,1001.95
2017-09-10T06:49:41.713Z,1001.96
2017-09-10T06:50:42.064Z,1001.94
2017-09-10T06:51:42.098Z,1001.96
2017-09-10T06:52:42.134Z,1001.99
2017-09-10T06:53:42.166Z,1002
2017-09-10T06:54:42.199Z,1001.97
2017-09-10T06:55:42.234Z,1002
2017-09-10T06:56:42.263Z,1001.95
2017-09-10T06:57:42.298Z,1001.96
2017-09-10T06:58:42.717Z,1001.94
2017-09-10T06:59:42.749Z,1001.94
2017-09-10T07:00:42.782Z,1001.91
2017-09-10T07:01:42.818Z,1001.96
2017-09-10T07:02:42.851Z,1001.96
2017-09-10T07:03:42.883Z,1001.95
2017-09-10T07:04:42.916Z,1001.97
2017-09-10T07:05:42.954Z,1002.1
2017-09-10T07:06:42.986Z,1002.13
2017-09-10T07:07:43.021Z,1001.98
2017-09-10T07:08:43.057Z,1002.03
2017-09-10T07:09:43.089Z,1002.06
2017-09-10T07:10:43.128Z,1002.1
2017-09-10T07:11:43.531Z,1002.14
2017-09-10T07:12:43.561Z,1002.1
2017-09-10T07:13:43.653Z,1002.13
2017-09-10T07:14:43.689Z,1002.18
2017-09-10T07:15:43.810Z,1002.16
2017-09-10T07:16:43.846Z,1002.16
2017-09-10T07:17:44.241Z,1002.17
2017-09-10T07:18:44.276Z,1002.18
2017-09-10T07:19:44.305Z,1002.23
2017-09-10T07:20:44.373Z,1002.24
2017-09-10T07:21:44.377Z,1002.25
2017-09-10T07:22:44.410Z,1002.3
2017-09-10T07:23:44.445Z,1002.24
2017-09-10T07:24:44.482Z,1002.31
2017-09-10T07:25:44.930Z,1002.23
2017-09-10T07:26:44.961Z,1002.24
2017-09-10T07:27:44.996Z,1002.3
2017-09-10T07:28:45.408Z,1002.34
2017-09-10T07:29:45.447Z,1002.23
2017-09-10T07:30:45.868Z,1002.21
2017-09-10T07:31:45.897Z,1002.07
2017-09-10T07:32:45.936Z,1002.08
2017-09-10T07:33:45.969Z,1002.11
2017-09-10T07:34:46.406Z,1002.1
2017-09-10T07:35:46.442Z,1002.14
2017-09-10T07:36:46.882Z,1002.07
2017-09-10T07:37:46.916Z,1002.11
2017-09-10T07:38:47.019Z,1002.13
2017-09-10T07:39:47.429Z,1002.17
2017-09-10T07:40:47.823Z,1002.15
2017-09-10T07:41:47.861Z,1002.2
2017-09-10T07:42:47.894Z,1002.17
2017-09-10T07:43:47.937Z,1002.22
2017-09-10T07:44:47.965Z,1002.21
2017-09-10T07:45:48.005Z,1002.13
2017-09-10T07:46:48.043Z,1002.17
2017-09-10T07:47:48.137Z,1002.14
2017-09-10T07:48:48.208Z,1002.18
2017-09-10T07:49:48.651Z,1002.17
2017-09-10T07:50:48.682Z,1002.22
2017-09-10T07:51:49.112Z,1002.2
2017-09-10T07:52:49.150Z,1002.2
2017-09-10T07:53:49.186Z,1002.28
2017-09-10T07:54:49.288Z,1002.26
2017-09-10T07:55:49.324Z,1002.28
2017-09-10T07:56:49.358Z,1002.37
2017-09-10T07:57:49.451Z,1002.34
2017-09-10T07:58:49.484Z,1002.41
2017-09-10T07:59:49.519Z,1002.43
2017-09-10T08:00:49.613Z,1002.45
2017-09-10T08:01:49.969Z,1002.46
2017-09-10T08:02:49.998Z,1002.55
2017-09-10T08:03:50.044Z,1002.39
2017-09-10T08:04:50.074Z,1002.4
2017-09-10T08:05:50.111Z,1002.39
2017-09-10T08:06:50.148Z,1002.42
2017-09-10T08:07:50.183Z,1002.41
2017-09-10T08:08:50.216Z,1002.45
2017-09-10T08:09:50.298Z,1002.36
2017-09-10T08:10:50.399Z,1002.51
2017-09-10T08:11:50.434Z,1002.43
2017-09-10T08:12:50.534Z,1002.47
2017-09-10T08:13:50.572Z,1002.51
2017-09-10T08:14:50.605Z,1002.5
2017-09-10T08:15:51.010Z,1002.59
2017-09-10T08:16:51.051Z,1002.47
2017-09-10T08:17:51.090Z,1002.49
2017-09-10T08:18:51.123Z,1002.49
2017-09-10T08:19:51.220Z,1002.47
2017-09-10T08:20:51.256Z,1002.48
2017-09-10T08:21:51.684Z,1002.5
2017-09-10T08:22:51.720Z,1002.45
2017-09-10T08:23:51.761Z,1002.58
2017-09-10T08:24:52.179Z,1002.48
2017-09-10T08:25:52.216Z,1002.48
2017-09-10T08:26:52.316Z,1002.46
2017-09-10T08:27:52.409Z,1002.39
2017-09-10T08:28:52.512Z,1002.55
2017-09-10T08:29:52.619Z,1002.43
2017-09-10T08:30:53.036Z,1002.49
2017-09-10T08:31:53.467Z,1002.5
2017-09-10T08:32:53.592Z,1002.5
2017-09-10T08:33:54.073Z,1002.47
2017-09-10T08:34:54.517Z,1002.58
2017-09-10T08:35:54.940Z,1002.5
2017-09-10T08:36:54.973Z,1002.61
2017-09-10T08:37:55.016Z,1002.57
2017-09-10T08:38:55.055Z,1002.48
2017-09-10T08:39:55.468Z,1002.51
2017-09-10T08:40:55.508Z,1002.64
2017-09-10T08:41:55.549Z,1002.72
2017-09-10T08:42:55.586Z,1002.81
2017-09-10T08:43:55.622Z,1002.76
2017-09-10T08:44:55.721Z,1002.81
2017-09-10T08:45:55.760Z,1002.75
2017-09-10T08:46:55.802Z,1002.8
2017-09-10T08:47:55.844Z,1002.61
2017-09-10T08:48:56.268Z,1002.48
2017-09-10T08:49:56.376Z,1002.62
2017-09-10T08:50:56.797Z,1002.63
2017-09-10T08:51:56.833Z,1002.76
2017-09-10T08:52:56.875Z,1002.76
2017-09-10T08:53:57.381Z,1002.53
2017-09-10T08:54:57.422Z,1002.58
2017-09-10T08:55:57.464Z,1002.67
2017-09-10T08:56:57.505Z,1002.48
2017-09-10T08:57:57.548Z,1002.64
2017-09-10T08:58:57.968Z,1002.73
2017-09-10T08:59:58.005Z,1002.64
2017-09-10T09:00:58.088Z,1002.68
2017-09-10T09:01:58.128Z,1002.65
2017-09-10T09:02:58.175Z,1002.74
2017-09-10T09:03:58.215Z,1002.75
2017-09-10T09:04:58.259Z,1002.78
2017-09-10T09:05:58.756Z,1002.86
2017-09-10T09:06:59.260Z,1002.95
2017-09-10T09:07:59.305Z,1002.92
2017-09-10T09:08:59.757Z,1002.35
2017-09-10T09:09:59.874Z,1003.03
2017-09-10T09:10:59.919Z,1003.03
2017-09-10T09:11:59.998Z,1003.04
2017-09-10T09:13:00.050Z,1002.95
2017-09-10T09:14:00.083Z,1002.99
2017-09-10T09:15:00.189Z,1003.01
2017-09-10T09:16:00.711Z,1002.91
2017-09-10T09:17:00.757Z,1002.9
2017-09-10T09:18:00.798Z,1002.85
2017-09-10T09:19:00.939Z,1002.9
2017-09-10T09:20:01.127Z,1002.91
2017-09-10T09:21:01.106Z,1002.94
2017-09-10T09:22:01.153Z,1002.94
2017-09-10T09:23:01.197Z,1002.94
2017-09-10T09:24:01.284Z,1002.96
2017-09-10T09:25:01.390Z,1003.05
2017-09-10T09:26:01.435Z,1003.06
2017-09-10T09:27:01.481Z,1003.06
2017-09-10T09:28:01.524Z,1003.13
2017-09-10T09:29:01.570Z,1003.16
2017-09-10T09:30:01.672Z,1003.11
2017-09-10T09:31:01.719Z,1003.13
2017-09-10T09:32:01.765Z,1003.19
2017-09-10T09:33:01.894Z,1003.2
2017-09-10T09:34:02.252Z,1002.35
2017-09-10T09:35:02.298Z,1003.31
2017-09-10T09:36:02.605Z,1002.73
2017-09-10T09:37:03.001Z,1002.41
2017-09-10T09:38:03.050Z,1002.51
2017-09-10T09:39:03.462Z,1002.57
2017-09-10T09:40:03.504Z,1002.57
2017-09-10T09:41:04.034Z,1003.63
2017-09-10T09:42:04.490Z,1003.43
2017-09-10T09:43:04.534Z,1003.64
2017-09-10T09:44:04.987Z,1002.68
2017-09-10T09:45:05.492Z,1003.63
2017-09-10T09:46:05.537Z,1003.74
2017-09-10T09:47:05.983Z,1003.73
2017-09-10T09:48:06.094Z,1003.69
2017-09-10T09:49:06.138Z,1003.68
2017-09-10T09:50:06.184Z,1003.68
2017-09-10T09:51:06.224Z,1003.68
2017-09-10T09:52:06.270Z,1003.65
2017-09-10T09:53:06.319Z,1003.63
2017-09-10T09:54:06.430Z,1003.63
2017-09-10T09:55:06.851Z,1002.45
2017-09-10T09:56:06.956Z,1002.43
2017-09-10T09:57:06.998Z,1002.42
2017-09-10T09:58:07.045Z,1002.41
2017-09-10T09:59:07.086Z,1002.45
2017-09-10T10:00:07.200Z,1002.6
2017-09-10T10:01:07.243Z,1002.56
2017-09-10T10:02:07.293Z,1002.93
2017-09-10T10:03:07.326Z,1003.97
2017-09-10T10:04:07.371Z,1003.34
2017-09-10T10:05:07.418Z,1004.01
2017-09-10T10:06:07.454Z,1003.97
2017-09-10T10:07:07.497Z,1003.91
2017-09-10T10:08:07.902Z,1003.87
2017-09-10T10:09:07.945Z,1003.89
2017-09-10T10:10:08.366Z,1004.04
2017-09-10T10:11:08.412Z,1004
2017-09-10T10:12:08.449Z,1004.01
2017-09-10T10:13:08.492Z,1003.99
2017-09-10T10:14:08.534Z,1004.14
2017-09-10T10:15:08.576Z,1004.24
2017-09-10T10:16:08.618Z,1004.24
2017-09-10T10:17:08.659Z,1004.15
2017-09-10T10:18:08.699Z,1004.03
2017-09-10T10:19:08.743Z,1003.76
2017-09-10T10:20:08.784Z,1003.87
2017-09-10T10:21:09.199Z,1003.74
2017-09-10T10:22:09.341Z,1003.74
2017-09-10T10:23:09.662Z,1003.68
2017-09-10T10:24:10.048Z,1003.52
2017-09-10T10:25:10.093Z,1003.55
2017-09-10T10:26:10.511Z,1003.76
2017-09-10T10:27:10.549Z,1002.98
2017-09-10T10:28:10.591Z,1002.46
2017-09-10T10:29:10.684Z,1002.49
2017-09-10T10:30:10.722Z,1002.83
2017-09-10T10:31:10.768Z,1002.56
2017-09-10T10:32:10.805Z,1002.51
2017-09-10T10:33:10.847Z,1002.61
2017-09-10T10:34:10.894Z,1004.4
2017-09-10T10:35:11.001Z,1006.16
2017-09-10T10:36:11.094Z,1006.33
2017-09-10T10:37:11.133Z,1006.58
2017-09-10T10:38:11.172Z,1006.8
2017-09-10T10:39:11.214Z,1006.82
2017-09-10T10:40:11.252Z,1006.72
2017-09-10T10:41:11.294Z,1006.39
2017-09-10T10:42:11.330Z,1006.37
2017-09-10T10:43:11.733Z,1006.3
2017-09-10T10:44:11.778Z,1006.25
2017-09-10T10:45:11.881Z,1006.51
2017-09-10T10:46:11.919Z,1006.74
2017-09-10T10:47:11.956Z,1004.39
2017-09-10T10:48:12.001Z,1006.45
2017-09-10T10:49:12.037Z,1002.55
2017-09-10T10:50:12.472Z,1002.56
2017-09-10T10:51:12.902Z,1002.5
2017-09-10T10:52:12.939Z,1002.45
2017-09-10T10:53:14.013Z,1002.48
2017-09-10T10:54:14.328Z,1002.53
2017-09-10T10:55:13.941Z,1002.63
2017-09-10T10:56:13.981Z,1002.48
2017-09-10T10:57:14.020Z,1002.49
2017-09-10T10:58:14.063Z,1002.65
2017-09-10T10:59:14.098Z,1002.55
2017-09-10T11:00:14.290Z,1002.58
2017-09-10T11:01:14.178Z,1002.62
2017-09-10T11:02:14.218Z,1002.6
2017-09-10T11:03:14.257Z,1002.59
2017-09-10T11:04:14.297Z,1002.55
2017-09-10T11:05:14.336Z,1002.57
2017-09-10T11:06:14.524Z,1002.52
2017-09-10T11:07:14.561Z,1002.53
2017-09-10T11:08:14.602Z,1002.69
2017-09-10T11:09:14.641Z,1002.73
2017-09-10T11:10:14.679Z,1002.66
2017-09-10T11:11:15.171Z,1002.74
2017-09-10T11:12:15.243Z,1002.7
2017-09-10T11:13:15.280Z,1002.67
2017-09-10T11:14:15.315Z,1002.74
2017-09-10T11:15:15.357Z,1002.73
2017-09-10T11:16:15.401Z,1002.85
2017-09-10T11:17:15.435Z,1002.72
2017-09-10T11:18:15.555Z,1002.8
2017-09-10T11:19:15.583Z,1002.7
2017-09-10T11:20:15.627Z,1002.71
2017-09-10T11:21:15.734Z,1002.72
2017-09-10T11:22:16.167Z,1002.63
2017-09-10T11:23:16.576Z,1002.62
2017-09-10T11:24:16.616Z,1002.62
2017-09-10T11:25:17.077Z,1002.57
2017-09-10T11:26:17.115Z,1002.56
2017-09-10T11:27:17.152Z,1002.55
2017-09-10T11:28:17.189Z,1002.57
2017-09-10T11:29:17.281Z,1002.51
2017-09-10T11:30:17.320Z,1002.44
2017-09-10T11:31:17.353Z,1002.48
2017-09-10T11:32:17.397Z,1002.51
2017-09-10T11:33:17.432Z,1002.51
2017-09-10T11:34:17.474Z,1002.48
2017-09-10T11:35:17.507Z,1002.52
2017-09-10T11:36:17.909Z,1002.56
2017-09-10T11:37:18.298Z,1002.51
2017-09-10T11:38:18.331Z,1002.52
2017-09-10T11:39:18.373Z,1002.48
2017-09-10T11:40:18.785Z,1002.55
2017-09-10T11:41:18.823Z,1002.52
2017-09-10T11:42:18.859Z,1002.56
2017-09-10T11:43:18.977Z,1002.56
2017-09-10T11:44:19.382Z,1002.54
2017-09-10T11:45:19.424Z,1002.54
2017-09-10T11:46:19.458Z,1002.48
2017-09-10T11:47:19.498Z,1002.46
2017-09-10T11:48:19.911Z,1002.43
2017-09-10T11:49:19.948Z,1002.41
2017-09-10T11:50:19.983Z,1002.44
2017-09-10T11:51:20.026Z,1002.41
2017-09-10T11:52:20.059Z,1002.42
2017-09-10T11:53:20.102Z,1002.45
2017-09-10T11:54:20.539Z,1002.49
2017-09-10T11:55:20.574Z,1002.56
2017-09-10T11:56:20.612Z,1002.55
2017-09-10T11:57:20.651Z,1002.52
2017-09-10T11:58:20.750Z,1002.54
2017-09-10T11:59:21.162Z,1002.5
2017-09-10T12:00:21.201Z,1002.51
2017-09-10T12:01:21.236Z,1002.47
2017-09-10T12:02:21.656Z,1002.41
2017-09-10T12:03:21.696Z,1002.36
2017-09-10T12:04:21.900Z,1002.32
2017-09-10T12:05:22.163Z,1002.38
2017-09-10T12:06:21.936Z,1002.34
2017-09-10T12:07:22.009Z,1002.33
2017-09-10T12:08:22.063Z,1002.34
2017-09-10T12:09:22.285Z,1002.32
2017-09-10T12:10:22.448Z,1002.34
2017-09-10T12:11:22.511Z,1002.35
2017-09-10T12:12:22.525Z,1002.35
2017-09-10T12:13:22.593Z,1002.37
2017-09-10T12:14:23.135Z,1002.42
2017-09-10T12:15:23.166Z,1002.42